createdAt,value
2023-04-17T00:01:36.216Z,2.93
2023-04-17T00:04:21.371Z,3.17
2023-04-17T00:07:09.725Z,2.91
2023-04-17T00:09:55.157Z,2.85
2023-04-17T00:12:40.530Z,2.95
2023-04-17T00:15:25.637Z,3.07
2023-04-17T00:18:11.141Z,3.01
2023-04-17T00:20:56.291Z,3.01
2023-04-17T00:23:41.626Z,3.06
2023-04-17T00:26:27.069Z,2.78
2023-04-17T00:29:12.648Z,3.01
2023-04-17T00:31:58.454Z,2.86
2023-04-17T00:34:43.726Z,3.14
2023-04-17T00:37:29.127Z,2.80
2023-04-17T00:40:14.421Z,2.92
2023-04-17T00:42:59.840Z,2.60
2023-04-17T00:45:45.150Z,2.85
2023-04-17T00:48:30.193Z,2.95
2023-04-17T00:51:15.649Z,2.82
2023-04-17T00:54:00.735Z,2.80
2023-04-17T00:56:46.081Z,2.86
2023-04-17T00:59:31.327Z,2.75
2023-04-17T01:02:16.992Z,2.86
2023-04-17T01:05:02.355Z,2.68
2023-04-17T01:07:47.749Z,2.83
2023-04-17T01:10:33.193Z,2.66
2023-04-17T01:13:18.528Z,2.73
2023-04-17T01:16:03.962Z,2.91
2023-04-17T01:18:49.237Z,2.80
2023-04-17T01:21:34.300Z,2.63
2023-04-17T01:24:19.736Z,2.66
2023-04-17T01:27:04.650Z,2.72
2023-04-17T01:29:50.150Z,2.86
2023-04-17T01:32:35.463Z,2.66
2023-04-17T01:35:20.689Z,2.82
2023-04-17T01:38:05.835Z,2.72
2023-04-17T01:40:52.444Z,2.62
2023-04-17T01:43:37.635Z,2.72
2023-04-17T01:46:23.029Z,2.45
2023-04-17T01:49:08.361Z,2.76
2023-04-17T01:51:53.801Z,2.59
2023-04-17T01:54:39.211Z,2.60
2023-04-17T01:57:24.685Z,2.50
2023-04-17T02:00:10.042Z,2.53
2023-04-17T02:02:55.481Z,2.53
2023-04-17T02:05:40.796Z,2.64
2023-04-17T02:08:26.118Z,2.49
2023-04-17T02:11:11.643Z,2.41
2023-04-17T02:13:56.903Z,2.62
2023-04-17T02:16:42.438Z,2.46
2023-04-17T02:19:27.592Z,2.61
2023-04-17T02:22:12.947Z,2.55
2023-04-17T02:24:58.360Z,2.64
2023-04-17T02:27:43.817Z,2.41
2023-04-17T02:30:29.430Z,2.62
2023-04-17T02:33:14.484Z,2.56
2023-04-17T02:35:59.855Z,2.51
2023-04-17T02:38:45.102Z,2.36
2023-04-17T02:41:30.385Z,2.33
2023-04-17T02:44:15.858Z,2.28
2023-04-17T02:47:01.200Z,2.54
2023-04-17T02:49:46.531Z,2.57
2023-04-17T02:52:31.833Z,2.37
2023-04-17T02:55:17.263Z,2.32
2023-04-17T02:58:02.600Z,2.27
2023-04-17T03:00:47.949Z,2.39
2023-04-17T03:03:33.597Z,2.32
2023-04-17T03:06:18.674Z,2.23
2023-04-17T03:09:04.051Z,2.50
2023-04-17T03:11:49.394Z,2.47
2023-04-17T03:14:34.782Z,2.55
2023-04-17T03:17:20.462Z,2.42
2023-04-17T03:20:05.773Z,2.33
2023-04-17T03:22:51.134Z,2.37
2023-04-17T03:25:36.350Z,2.23
2023-04-17T03:28:21.910Z,2.34
2023-04-17T03:31:07.234Z,2.37
2023-04-17T03:33:52.710Z,2.17
2023-04-17T03:36:38.012Z,2.17
2023-04-17T03:39:22.947Z,2.24
2023-04-17T03:42:08.433Z,2.37
2023-04-17T03:44:53.809Z,2.26
2023-04-17T03:47:39.314Z,2.24
2023-04-17T03:50:24.810Z,2.33
2023-04-17T03:53:10.164Z,2.42
2023-04-17T03:55:55.675Z,2.40
2023-04-17T03:58:40.681Z,2.28
2023-04-17T04:01:26.097Z,2.38
2023-04-17T04:04:11.723Z,2.36
2023-04-17T04:06:57.037Z,2.19
2023-04-17T04:09:42.386Z,2.18
2023-04-17T04:12:27.597Z,2.23
2023-04-17T04:15:13.114Z,2.36
2023-04-17T04:17:58.539Z,2.22
2023-04-17T04:20:44.039Z,2.24
2023-04-17T04:23:29.431Z,2.23
2023-04-17T04:26:14.718Z,2.22
2023-04-17T04:29:00.092Z,2.18
2023-04-17T04:31:45.423Z,2.10
2023-04-17T04:34:30.718Z,2.14
2023-04-17T04:37:16.182Z,2.03
2023-04-17T04:40:01.467Z,2.11
2023-04-17T04:42:46.986Z,2.06
2023-04-17T04:45:32.234Z,2.05
2023-04-17T04:48:17.725Z,2.21
2023-04-17T04:51:02.965Z,2.12
2023-04-17T04:53:48.252Z,2.21
2023-04-17T04:56:33.327Z,2.15
2023-04-17T04:59:18.582Z,2.25
2023-04-17T05:02:04.219Z,2.11
2023-04-17T05:04:49.618Z,2.23
2023-04-17T05:07:34.724Z,2.09
2023-04-17T05:10:19.916Z,2.15
2023-04-17T05:13:05.451Z,2.26
2023-04-17T05:15:50.800Z,1.86
2023-04-17T05:18:36.002Z,2.04
2023-04-17T05:21:21.459Z,2.09
2023-04-17T05:24:07.060Z,2.16
2023-04-17T05:26:52.038Z,1.90
2023-04-17T05:29:37.401Z,2.14
2023-04-17T05:32:22.659Z,2.27
2023-04-17T05:35:08.023Z,2.23
2023-04-17T05:37:53.293Z,2.18
2023-04-17T05:40:38.597Z,1.91
2023-04-17T05:43:24.190Z,2.23
2023-04-17T05:46:09.587Z,2.28
2023-04-17T05:48:55.123Z,2.19
2023-04-17T05:51:40.336Z,2.29
2023-04-17T05:54:25.337Z,2.13
2023-04-17T05:57:10.605Z,2.27
2023-04-17T05:59:56.010Z,2.01
2023-04-17T06:02:41.535Z,2.13
2023-04-17T06:05:26.908Z,2.14
2023-04-17T06:08:12.303Z,2.04
2023-04-17T06:10:57.511Z,2.24
2023-04-17T06:13:42.868Z,2.26
2023-04-17T06:16:28.052Z,2.47
2023-04-17T06:19:13.266Z,2.54
2023-04-17T06:21:58.551Z,2.79
2023-04-17T06:24:43.819Z,2.82
2023-04-17T06:27:29.105Z,2.50
2023-04-17T06:30:14.513Z,2.72
2023-04-17T06:32:59.783Z,2.59
2023-04-17T06:35:45.129Z,2.69
2023-04-17T06:38:30.475Z,2.97
2023-04-17T06:41:16.061Z,2.66
2023-04-17T06:44:01.364Z,2.62
2023-04-17T06:46:46.914Z,2.59
2023-04-17T06:49:32.101Z,2.52
2023-04-17T06:52:17.587Z,2.58
2023-04-17T06:55:02.909Z,2.45
2023-04-17T06:57:48.280Z,2.38
2023-04-17T07:00:33.613Z,2.45
2023-04-17T07:03:19.119Z,2.53
2023-04-17T07:06:04.259Z,2.85
2023-04-17T07:08:49.576Z,2.68
2023-04-17T07:11:34.863Z,2.62
2023-04-17T07:14:20.319Z,3.16
2023-04-17T07:17:05.607Z,2.82
2023-04-17T07:19:51.074Z,3.08
2023-04-17T07:22:36.286Z,2.99
2023-04-17T07:25:21.614Z,3.03
2023-04-17T07:28:07.065Z,3.61
2023-04-17T07:30:52.332Z,3.75
2023-04-17T07:33:40.196Z,3.38
2023-04-17T07:36:25.717Z,3.37
2023-04-17T07:39:11.214Z,3.42
2023-04-17T07:41:56.445Z,3.33
2023-04-17T07:44:43.560Z,3.36
2023-04-17T07:47:28.760Z,3.29
2023-04-17T07:50:14.200Z,2.96
2023-04-17T07:52:59.535Z,3.23
2023-04-17T07:55:45.094Z,3.11
2023-04-17T07:58:30.342Z,3.10
2023-04-17T08:01:15.577Z,3.00
2023-04-17T08:04:00.995Z,2.82
2023-04-17T08:06:46.570Z,2.85
2023-04-17T08:09:31.935Z,2.86
2023-04-17T08:12:17.245Z,2.96
2023-04-17T08:15:02.788Z,3.07
2023-04-17T08:17:48.057Z,3.14
2023-04-17T08:20:33.225Z,3.27
2023-04-17T08:23:18.752Z,2.93
2023-04-17T08:26:04.082Z,2.94
2023-04-17T08:28:49.380Z,2.82
2023-04-17T08:31:34.741Z,2.63
2023-04-17T08:34:19.965Z,2.79
2023-04-17T08:37:05.407Z,2.84
2023-04-17T08:39:50.751Z,2.88
2023-04-17T08:42:36.099Z,2.84
2023-04-17T08:45:21.303Z,2.80
2023-04-17T08:48:06.731Z,2.90
2023-04-17T08:50:51.952Z,2.73
2023-04-17T08:53:37.386Z,2.64
2023-04-17T08:56:22.803Z,2.68
2023-04-17T08:59:08.162Z,2.51
2023-04-17T09:01:53.610Z,2.74
2023-04-17T09:04:38.985Z,2.97
2023-04-17T09:07:24.100Z,2.69
2023-04-17T09:10:09.663Z,2.69
2023-04-17T09:12:54.930Z,2.99
2023-04-17T09:15:40.470Z,2.55
2023-04-17T09:18:25.678Z,2.63
2023-04-17T09:21:10.954Z,2.61
2023-04-17T09:23:56.360Z,2.68
2023-04-17T09:26:41.607Z,2.73
2023-04-17T09:29:27.136Z,2.61
2023-04-17T09:32:12.394Z,2.77
2023-04-17T09:34:57.284Z,2.55
2023-04-17T09:37:42.724Z,2.78
2023-04-17T09:40:28.046Z,2.64
2023-04-17T09:43:13.299Z,2.60
2023-04-17T09:45:58.398Z,2.49
2023-04-17T09:48:43.786Z,2.52
2023-04-17T09:51:29.058Z,2.37
2023-04-17T09:54:14.429Z,2.43
2023-04-17T09:56:59.667Z,2.53
2023-04-17T09:59:44.966Z,2.13
2023-04-17T10:02:30.615Z,2.24
2023-04-17T10:05:15.929Z,2.32
2023-04-17T10:08:01.268Z,2.23
2023-04-17T10:10:46.548Z,2.25
2023-04-17T10:13:32.021Z,2.38
2023-04-17T10:16:17.247Z,4.44
2023-04-17T10:19:02.709Z,5.58
2023-04-17T10:21:50.553Z,6.21
2023-04-17T10:24:36.026Z,8.43
2023-04-17T10:27:21.209Z,9.90
2023-04-17T10:30:06.619Z,10.99
2023-04-17T10:32:51.910Z,11.27
2023-04-17T10:35:37.275Z,11.84
2023-04-17T10:38:22.538Z,12.91
2023-04-17T10:41:07.935Z,14.65
2023-04-17T10:43:53.199Z,15.70
2023-04-17T10:46:38.560Z,16.17
2023-04-17T10:49:23.898Z,15.35
2023-04-17T10:52:09.246Z,15.78
2023-04-17T10:54:54.364Z,14.99
2023-04-17T10:57:40.542Z,14.28
2023-04-17T11:00:26.794Z,14.49
2023-04-17T11:03:12.580Z,13.77
2023-04-17T11:06:02.098Z,12.91
2023-04-17T11:08:48.063Z,14.30
2023-04-17T11:11:43.648Z,13.94
2023-04-17T11:14:29.169Z,14.91
2023-04-17T11:17:16.184Z,20.13
2023-04-17T11:20:03.130Z,20.48
2023-04-17T11:22:53.342Z,22.54
2023-04-17T11:25:39.617Z,23.36
2023-04-17T11:28:35.135Z,23.51
2023-04-17T11:31:23.675Z,22.70
2023-04-17T11:34:08.910Z,21.70
2023-04-17T11:36:56.285Z,21.46
2023-04-17T11:39:42.596Z,19.85
2023-04-17T11:42:31.787Z,19.54
2023-04-17T11:45:17.761Z,18.35
2023-04-17T11:48:03.456Z,17.79
2023-04-17T11:50:49.004Z,17.17
2023-04-17T11:53:34.566Z,16.41
2023-04-17T11:56:19.838Z,16.04
2023-04-17T11:59:04.805Z,15.57
2023-04-17T12:01:50.328Z,14.94
2023-04-17T12:04:38.171Z,14.66
2023-04-17T12:07:24.761Z,13.98
2023-04-17T12:10:13.168Z,13.30
2023-04-17T12:12:58.318Z,13.02
2023-04-17T12:15:43.683Z,12.72
2023-04-17T12:18:29.189Z,11.11
2023-04-17T12:21:14.249Z,9.77
2023-04-17T12:23:59.476Z,7.07
2023-04-17T12:26:44.620Z,6.12
2023-04-17T12:29:43.252Z,5.35
2023-04-17T12:32:29.862Z,4.18
2023-04-17T12:35:15.196Z,4.21
2023-04-17T12:38:00.561Z,3.46
2023-04-17T12:40:45.983Z,2.89
2023-04-17T12:43:31.458Z,3.15
2023-04-17T12:46:16.494Z,3.01
2023-04-17T12:49:02.465Z,2.58
2023-04-17T12:51:47.848Z,2.86
2023-04-17T12:54:35.506Z,2.88
2023-04-17T12:57:21.148Z,2.90
2023-04-17T13:00:06.489Z,2.77
2023-04-17T13:02:52.104Z,2.63
2023-04-17T13:05:37.211Z,2.34
2023-04-17T13:08:22.483Z,2.55
2023-04-17T13:11:08.602Z,2.25
2023-04-17T13:13:54.299Z,2.31
2023-04-17T13:16:42.729Z,2.21
2023-04-17T13:19:28.806Z,2.28
2023-04-17T13:22:14.266Z,2.25
2023-04-17T13:24:59.661Z,2.14
2023-04-17T13:27:45.094Z,2.24
2023-04-17T13:30:30.349Z,2.14
2023-04-17T13:33:15.727Z,1.92
2023-04-17T13:36:01.050Z,1.85
2023-04-17T13:38:46.328Z,1.92
2023-04-17T13:41:31.779Z,2.20
2023-04-17T13:44:16.957Z,2.13
2023-04-17T13:47:02.599Z,1.92
2023-04-17T13:49:47.790Z,1.95
2023-04-17T13:52:33.209Z,2.07
2023-04-17T13:55:18.460Z,1.77
2023-04-17T13:58:03.761Z,1.87
2023-04-17T14:00:49.116Z,2.05
2023-04-17T14:03:36.246Z,1.81
2023-04-17T14:06:22.724Z,1.93
2023-04-17T14:09:08.016Z,1.81
2023-04-17T14:11:53.330Z,1.84
2023-04-17T14:14:38.769Z,1.93
2023-04-17T14:17:24.016Z,1.81
2023-04-17T14:20:09.454Z,1.86
2023-04-17T14:22:54.879Z,3.20
2023-04-17T14:25:39.862Z,3.90
2023-04-17T14:28:25.377Z,2.22
2023-04-17T14:31:10.778Z,2.27
2023-04-17T14:33:56.373Z,2.27
2023-04-17T14:36:43.423Z,2.11
2023-04-17T14:39:30.861Z,2.24
2023-04-17T14:42:16.495Z,1.95
2023-04-17T14:45:01.877Z,2.02
2023-04-17T14:47:47.204Z,2.20
2023-04-17T14:50:32.710Z,1.93
2023-04-17T14:53:19.466Z,2.00
2023-04-17T14:56:06.352Z,1.96
2023-04-17T14:58:51.686Z,1.96
2023-04-17T15:01:37.079Z,2.02
2023-04-17T15:04:22.606Z,1.86
2023-04-17T15:07:07.876Z,1.97
2023-04-17T15:09:54.261Z,2.16
2023-04-17T15:12:41.133Z,1.94
2023-04-17T15:15:26.254Z,2.10
2023-04-17T15:18:11.738Z,2.04
2023-04-17T15:20:56.754Z,2.09
2023-04-17T15:23:42.100Z,1.88
2023-04-17T15:26:27.565Z,2.13
2023-04-17T15:29:12.949Z,2.21
2023-04-17T15:31:58.290Z,2.20
2023-04-17T15:34:44.288Z,2.27
2023-04-17T15:37:44.270Z,2.20
2023-04-17T15:40:29.865Z,2.29
2023-04-17T15:43:22.769Z,2.13
2023-04-17T15:46:08.282Z,2.15
2023-04-17T15:49:07.516Z,2.13
2023-04-17T15:51:53.596Z,2.08
2023-04-17T15:54:39.085Z,2.25
2023-04-17T15:57:24.687Z,2.23
2023-04-17T16:00:10.142Z,2.06
2023-04-17T16:02:55.539Z,2.26
2023-04-17T16:05:40.732Z,2.05
2023-04-17T16:08:26.293Z,2.11
2023-04-17T16:11:11.601Z,2.12
2023-04-17T16:13:59.678Z,2.04
2023-04-17T16:16:45.033Z,2.23
2023-04-17T16:19:30.278Z,2.16
2023-04-17T16:22:15.281Z,1.99
2023-04-17T16:25:00.586Z,2.00
2023-04-17T16:27:45.946Z,2.29
2023-04-17T16:30:31.275Z,2.15
2023-04-17T16:33:16.573Z,1.98
2023-04-17T16:36:01.817Z,2.07
2023-04-17T16:38:47.199Z,2.03
2023-04-17T16:41:32.509Z,2.00
2023-04-17T16:44:18.093Z,2.07
2023-04-17T16:49:51.265Z,1.96
2023-04-17T16:52:36.665Z,1.83
2023-04-17T16:55:21.862Z,1.94
2023-04-17T16:58:07.158Z,2.66
2023-04-17T17:00:52.228Z,10.58
2023-04-17T17:03:37.839Z,15.73
2023-04-17T17:06:22.916Z,15.15
2023-04-17T17:09:08.362Z,13.19
2023-04-17T17:11:53.750Z,12.16
2023-04-17T17:14:39.014Z,9.62
2023-04-17T17:17:24.183Z,8.05
2023-04-17T17:20:09.527Z,6.65
2023-04-17T17:22:57.203Z,5.89
2023-04-17T17:25:42.611Z,5.31
2023-04-17T17:28:27.893Z,4.80
2023-04-17T17:31:13.277Z,4.21
2023-04-17T17:33:59.896Z,2.94
2023-04-17T17:36:46.414Z,2.47
2023-04-17T17:39:31.429Z,2.35
2023-04-17T17:42:16.672Z,2.16
2023-04-17T17:45:02.161Z,2.12
2023-04-17T17:47:47.251Z,2.10
2023-04-17T17:50:32.726Z,2.18
2023-04-17T17:53:18.600Z,2.10
2023-04-17T17:56:06.404Z,2.22
2023-04-17T17:58:51.840Z,1.86
2023-04-17T18:01:37.233Z,2.14
2023-04-17T18:04:22.923Z,2.19
2023-04-17T18:07:08.126Z,2.28
2023-04-17T18:09:53.198Z,2.34
2023-04-17T18:12:38.772Z,2.29
2023-04-17T18:15:24.140Z,2.41
2023-04-17T18:18:09.560Z,2.30
2023-04-17T18:20:55.039Z,2.27
2023-04-17T18:23:40.338Z,2.35
2023-04-17T18:26:25.759Z,2.47
2023-04-17T18:29:11.079Z,2.19
2023-04-17T18:31:56.526Z,2.33
2023-04-17T18:34:42.084Z,2.38
2023-04-17T18:37:27.378Z,2.20
2023-04-17T18:40:12.776Z,2.45
2023-04-17T18:42:58.104Z,2.54
2023-04-17T18:45:43.521Z,2.37
2023-04-17T18:48:28.980Z,2.32
2023-04-17T18:51:14.239Z,2.31
2023-04-17T18:54:00.419Z,2.37
2023-04-17T18:56:45.405Z,2.28
2023-04-17T18:59:30.866Z,2.35
2023-04-17T19:02:16.273Z,2.20
2023-04-17T19:05:01.665Z,2.28
2023-04-17T19:07:47.008Z,2.20
2023-04-17T19:10:32.298Z,2.12
2023-04-17T19:13:17.523Z,2.22
2023-04-17T19:16:03.009Z,2.34
2023-04-17T19:18:48.349Z,2.28
2023-04-17T19:21:34.039Z,2.28
2023-04-17T19:24:19.249Z,2.36
2023-04-17T19:27:04.689Z,2.25
2023-04-17T19:29:49.994Z,2.17
2023-04-17T19:32:35.338Z,2.22
2023-04-17T19:35:20.453Z,2.16
2023-04-17T19:38:06.184Z,2.24
2023-04-17T19:40:51.681Z,2.25
2023-04-17T19:43:37.508Z,2.24
2023-04-17T19:46:23.326Z,2.23
2023-04-17T19:49:08.715Z,2.26
2023-04-17T19:51:53.894Z,2.30
2023-04-17T19:54:39.021Z,2.09
2023-04-17T19:57:24.360Z,2.16
2023-04-17T20:00:09.885Z,2.18
2023-04-17T20:02:55.483Z,1.96
2023-04-17T20:05:41.275Z,2.07
2023-04-17T20:08:26.792Z,2.18
2023-04-17T20:11:12.410Z,2.01
2023-04-17T20:13:58.000Z,2.13
2023-04-17T20:16:43.417Z,2.23
2023-04-17T20:19:28.606Z,2.01
2023-04-17T20:22:14.206Z,2.04
2023-04-17T20:24:59.651Z,2.21
2023-04-17T20:27:46.174Z,2.08
2023-04-17T20:30:31.420Z,2.11
2023-04-17T20:33:16.911Z,1.98
2023-04-17T20:36:02.142Z,2.08
2023-04-17T20:38:47.349Z,2.13
2023-04-17T20:41:34.000Z,2.15
2023-04-17T20:44:19.216Z,2.08
2023-04-17T20:47:04.706Z,2.14
2023-04-17T20:49:50.220Z,2.01
2023-04-17T20:52:35.678Z,2.16
2023-04-17T20:55:21.188Z,2.05
2023-04-17T20:58:06.521Z,2.04
2023-04-17T21:01:00.720Z,2.15
2023-04-17T21:03:47.106Z,2.23
2023-04-17T21:06:32.559Z,1.95
2023-04-17T21:09:17.769Z,1.97
2023-04-17T21:12:03.160Z,2.02
2023-04-17T21:14:48.507Z,1.99
2023-04-17T21:17:33.856Z,2.19
2023-04-17T21:20:19.496Z,2.01
2023-04-17T21:23:04.824Z,1.90
2023-04-17T21:25:50.273Z,2.21
2023-04-17T21:28:35.667Z,2.03
2023-04-17T21:31:20.868Z,2.14
2023-04-17T21:34:06.349Z,2.02
2023-04-17T21:36:51.391Z,1.95
2023-04-17T21:39:36.920Z,1.95
2023-04-17T21:42:22.228Z,1.99
2023-04-17T21:45:07.526Z,1.81
2023-04-17T21:47:52.783Z,2.01
2023-04-17T21:50:38.115Z,2.05
2023-04-17T21:53:23.575Z,2.12
2023-04-17T21:56:08.933Z,2.04
2023-04-17T21:58:54.364Z,1.96
2023-04-17T22:01:39.822Z,1.89
2023-04-17T22:04:28.399Z,1.90
2023-04-17T22:07:13.560Z,2.01
2023-04-17T22:09:58.902Z,1.88
2023-04-17T22:12:44.180Z,2.15
2023-04-17T22:15:29.605Z,2.16
2023-04-17T22:18:15.036Z,2.09
2023-04-17T22:21:00.544Z,2.03
2023-04-17T22:23:45.960Z,1.86
2023-04-17T22:26:31.367Z,1.90
2023-04-17T22:29:16.747Z,1.92
2023-04-17T22:32:02.125Z,2.11
2023-04-17T22:34:47.492Z,1.91
2023-04-17T22:37:32.988Z,2.09
2023-04-17T22:40:18.284Z,2.02
2023-04-17T22:43:06.019Z,1.88
2023-04-17T22:45:51.200Z,1.89
2023-04-17T22:48:36.575Z,2.00
2023-04-17T22:51:21.968Z,1.96
2023-04-17T22:54:19.116Z,2.10
2023-04-17T22:57:05.177Z,1.96
2023-04-17T22:59:50.635Z,1.95
2023-04-17T23:02:36.070Z,2.04
2023-04-17T23:05:21.458Z,1.92
2023-04-17T23:08:06.936Z,2.22
2023-04-17T23:10:52.315Z,2.01
2023-04-17T23:13:37.659Z,2.01
2023-04-17T23:16:23.059Z,2.05
2023-04-17T23:19:08.369Z,2.09
2023-04-17T23:21:53.698Z,2.04
2023-04-17T23:24:39.351Z,1.97
2023-04-17T23:27:24.908Z,2.11
2023-04-17T23:30:10.343Z,1.99
2023-04-17T23:32:55.826Z,2.17
2023-04-17T23:35:41.043Z,2.06
2023-04-17T23:38:26.247Z,2.04
2023-04-17T23:41:11.610Z,2.12
2023-04-17T23:43:57.029Z,1.99
2023-04-17T23:46:42.395Z,1.97
2023-04-17T23:49:27.699Z,1.81
2023-04-17T23:52:13.170Z,2.06
2023-04-17T23:54:58.750Z,1.89
2023-04-17T23:57:44.063Z,1.97
